createdAt,value
2022-08-04T00:01:52.448Z,11.78
2022-08-04T00:04:34.277Z,11.74
2022-08-04T00:07:09.287Z,11.69
2022-08-04T00:09:40.530Z,11.64
2022-08-04T00:12:08.987Z,11.59
2022-08-04T00:14:38.609Z,11.55
2022-08-04T00:17:07.924Z,11.51
2022-08-04T00:19:41.911Z,11.47
2022-08-04T00:22:12.794Z,11.42
2022-08-04T00:24:41.422Z,11.37
2022-08-04T00:27:09.967Z,11.33
2022-08-04T00:29:39.493Z,11.31
2022-08-04T00:32:08.893Z,11.27
2022-08-04T00:34:37.729Z,11.23
2022-08-04T00:37:06.919Z,11.21
2022-08-04T00:39:36.904Z,11.18
2022-08-04T00:42:15.337Z,11.13
2022-08-04T00:44:49.813Z,11.09
2022-08-04T00:47:30.246Z,11.05
2022-08-04T00:50:07.619Z,11.01
2022-08-04T00:52:46.152Z,10.95
2022-08-04T00:55:24.250Z,10.93
2022-08-04T00:57:57.306Z,10.87
2022-08-04T01:00:26.111Z,10.84
2022-08-04T01:03:04.026Z,10.80
2022-08-04T01:05:37.834Z,10.75
2022-08-04T01:08:24.282Z,10.70
2022-08-04T01:11:00.412Z,10.65
2022-08-04T01:13:37.833Z,10.62
2022-08-04T01:16:07.714Z,10.58
2022-08-04T01:18:42.466Z,10.55
2022-08-04T01:21:24.319Z,10.51
2022-08-04T01:24:13.361Z,10.47
2022-08-04T01:26:57.457Z,10.44
2022-08-04T01:29:44.070Z,10.41
2022-08-04T01:32:21.067Z,10.37
2022-08-04T01:34:57.723Z,10.33
2022-08-04T01:37:32.473Z,10.31
2022-08-04T01:40:04.199Z,10.27
2022-08-04T01:42:33.748Z,10.23
2022-08-04T01:45:04.785Z,10.18
2022-08-04T01:47:35.598Z,10.16
2022-08-04T01:50:06.402Z,10.12
2022-08-04T01:52:35.938Z,10.07
2022-08-04T01:55:05.672Z,10.01
2022-08-04T01:57:37.883Z,9.97
2022-08-04T02:00:10.338Z,9.93
2022-08-04T02:02:39.830Z,9.86
2022-08-04T02:05:11.256Z,9.78
2022-08-04T02:07:43.929Z,9.72
2022-08-04T02:10:19.581Z,9.69
2022-08-04T02:12:54.997Z,9.68
2022-08-04T02:15:28.709Z,9.66
2022-08-04T02:18:01.342Z,9.63
2022-08-04T02:20:31.574Z,9.62
2022-08-04T02:23:00.337Z,9.60
2022-08-04T02:25:29.377Z,9.59
2022-08-04T02:28:03.927Z,9.57
2022-08-04T02:30:38.205Z,9.55
2022-08-04T02:33:08.757Z,9.50
2022-08-04T02:35:37.805Z,9.47
2022-08-04T02:38:12.899Z,9.39
2022-08-04T02:40:42.588Z,9.36
2022-08-04T02:43:11.453Z,9.32
2022-08-04T02:45:42.868Z,9.23
2022-08-04T02:48:31.187Z,9.13
2022-08-04T02:51:00.621Z,9.05
2022-08-04T02:53:32.485Z,8.93
2022-08-04T02:56:02.513Z,8.73
2022-08-04T02:58:33.666Z,8.60
2022-08-04T03:01:03.590Z,8.50
2022-08-04T03:03:36.041Z,8.44
2022-08-04T03:06:22.155Z,8.39
2022-08-04T03:09:02.327Z,8.37
2022-08-04T03:11:39.957Z,8.33
2022-08-04T03:14:32.179Z,8.26
2022-08-04T03:17:21.410Z,8.21
2022-08-04T03:20:13.933Z,8.21
2022-08-04T03:23:13.069Z,8.15
2022-08-04T03:25:58.994Z,8.10
2022-08-04T03:28:52.874Z,8.08
2022-08-04T03:31:51.159Z,8.05
2022-08-04T03:34:27.775Z,8.04
2022-08-04T03:37:13.280Z,8.00
2022-08-04T03:40:10.663Z,8.01
2022-08-04T03:43:02.094Z,8.08
2022-08-04T03:45:53.225Z,8.09
2022-08-04T03:48:34.442Z,8.12
2022-08-04T03:51:34.977Z,8.16
2022-08-04T03:54:20.142Z,8.20
2022-08-04T03:56:58.359Z,8.23
2022-08-04T03:59:43.188Z,8.25
2022-08-04T04:02:44.397Z,8.26
2022-08-04T04:05:31.247Z,8.26
2022-08-04T04:08:19.155Z,8.30
2022-08-04T04:11:02.290Z,8.29
2022-08-04T04:13:48.060Z,8.29
2022-08-04T04:16:29.694Z,8.30
2022-08-04T04:19:22.179Z,8.26
2022-08-04T04:22:03.504Z,8.23
2022-08-04T04:24:46.905Z,8.17
2022-08-04T04:27:20.069Z,8.11
2022-08-04T04:29:59.038Z,8.07
2022-08-04T04:32:36.887Z,8.01
2022-08-04T04:35:12.427Z,7.94
2022-08-04T04:37:51.909Z,7.90
2022-08-04T04:40:29.281Z,7.86
2022-08-04T04:43:11.553Z,7.82
2022-08-04T04:45:44.389Z,7.77
2022-08-04T04:48:19.154Z,7.69
2022-08-04T04:50:54.515Z,7.67
2022-08-04T04:53:28.717Z,7.58
2022-08-04T04:56:01.242Z,7.54
2022-08-04T04:58:33.199Z,7.47
2022-08-04T05:01:25.474Z,7.42
2022-08-04T05:04:06.943Z,7.39
2022-08-04T05:06:46.192Z,7.32
2022-08-04T05:09:28.042Z,7.31
2022-08-04T05:14:30.795Z,7.32
2022-08-04T05:15:05.853Z,7.36
2022-08-04T05:17:38.761Z,7.41
2022-08-04T05:20:09.903Z,7.49
2022-08-04T05:22:41.056Z,7.69
2022-08-04T05:25:11.402Z,7.98
2022-08-04T05:27:41.481Z,8.31
2022-08-04T05:30:10.429Z,8.70
2022-08-04T05:32:42.206Z,9.10
2022-08-04T05:35:13.794Z,9.36
2022-08-04T05:37:45.820Z,9.52
2022-08-04T05:40:30.033Z,9.58
2022-08-04T05:42:58.586Z,9.58
2022-08-04T05:45:27.907Z,9.55
2022-08-04T05:48:09.164Z,9.58
2022-08-04T05:50:38.842Z,9.74
2022-08-04T05:53:07.514Z,10.09
2022-08-04T05:55:48.865Z,10.57
2022-08-04T05:58:25.177Z,11.14
2022-08-04T06:00:53.718Z,11.74
2022-08-04T06:03:22.970Z,12.35
2022-08-04T06:05:53.234Z,13.01
2022-08-04T06:08:21.638Z,13.67
2022-08-04T06:10:51.281Z,14.34
2022-08-04T06:13:47.791Z,14.91
2022-08-04T06:16:28.656Z,15.17
2022-08-04T06:20:01.201Z,15.94
2022-08-04T06:21:49.613Z,16.45
2022-08-04T06:24:19.985Z,17.00
2022-08-04T06:26:49.491Z,17.53
2022-08-04T06:29:25.032Z,17.85
2022-08-04T06:32:27.285Z,18.10
2022-08-04T06:34:51.609Z,18.69
2022-08-04T06:37:40.851Z,19.21
2022-08-04T06:40:29.821Z,19.66
2022-08-04T06:43:00.108Z,20.19
2022-08-04T06:45:28.951Z,20.45
2022-08-04T06:47:57.417Z,20.89
2022-08-04T06:51:27.119Z,21.11
2022-08-04T06:53:17.010Z,21.55
2022-08-04T06:55:46.928Z,21.78
2022-08-04T06:58:17.073Z,22.14
2022-08-04T07:00:47.099Z,22.22
2022-08-04T07:03:16.230Z,22.72
2022-08-04T07:05:47.751Z,23.14
2022-08-04T07:08:17.990Z,22.80
2022-08-04T07:10:46.426Z,23.14
2022-08-04T07:13:14.952Z,23.47
2022-08-04T07:15:45.141Z,23.80
2022-08-04T07:18:13.402Z,24.15
2022-08-04T07:20:42.274Z,24.56
2022-08-04T07:23:12.158Z,24.91
2022-08-04T07:25:58.800Z,24.98
2022-08-04T07:28:30.858Z,25.33
2022-08-04T07:30:59.698Z,25.66
2022-08-04T07:33:28.953Z,25.45
2022-08-04T07:36:04.569Z,25.82
2022-08-04T07:38:50.626Z,26.25
2022-08-04T07:41:40.649Z,26.29
2022-08-04T07:44:09.440Z,26.65
2022-08-04T07:46:37.911Z,26.96
2022-08-04T07:49:06.867Z,26.74
2022-08-04T07:51:36.947Z,27.22
2022-08-04T07:54:05.799Z,27.48
2022-08-04T07:56:36.734Z,27.39
2022-08-04T07:59:06.367Z,27.60
2022-08-04T08:01:35.575Z,26.82
2022-08-04T08:04:04.193Z,27.31
2022-08-04T08:06:35.658Z,26.86
2022-08-04T08:09:13.812Z,27.16
2022-08-04T08:12:38.002Z,26.59
2022-08-04T08:14:35.132Z,27.12
2022-08-04T08:17:04.537Z,27.59
2022-08-04T08:19:33.063Z,27.50
2022-08-04T08:22:02.059Z,27.20
2022-08-04T08:24:31.093Z,27.25
2022-08-04T08:27:01.484Z,26.84
2022-08-04T08:29:30.211Z,25.76
2022-08-04T08:32:02.732Z,25.93
2022-08-04T08:34:35.386Z,26.70
2022-08-04T08:37:06.474Z,26.94
2022-08-04T08:39:37.911Z,27.26
2022-08-04T08:42:21.109Z,27.22
2022-08-04T08:45:17.977Z,27.47
2022-08-04T08:48:07.357Z,28.57
2022-08-04T08:50:53.615Z,29.21
2022-08-04T08:53:29.163Z,29.47
2022-08-04T08:56:10.370Z,29.41
2022-08-04T08:58:46.104Z,29.39
2022-08-04T09:01:29.005Z,28.16
2022-08-04T09:04:23.796Z,27.80
2022-08-04T09:07:02.660Z,26.93
2022-08-04T09:09:42.081Z,26.53
2022-08-04T09:12:14.248Z,25.68
2022-08-04T09:14:46.759Z,25.86
2022-08-04T09:17:28.705Z,25.79
2022-08-04T09:20:00.851Z,25.22
2022-08-04T09:22:35.365Z,25.19
2022-08-04T09:25:05.075Z,25.21
2022-08-04T09:27:39.723Z,25.79
2022-08-04T09:30:09.039Z,26.09
2022-08-04T09:32:43.260Z,26.72
2022-08-04T09:35:19.725Z,27.11
2022-08-04T09:37:53.717Z,27.36
2022-08-04T09:40:29.397Z,27.63
2022-08-04T09:43:19.853Z,27.28
2022-08-04T09:45:51.863Z,27.34
2022-08-04T09:48:29.698Z,27.13
2022-08-04T09:51:00.619Z,27.64
2022-08-04T09:53:37.252Z,27.99
2022-08-04T09:56:09.932Z,28.32
2022-08-04T09:58:47.055Z,28.70
2022-08-04T10:01:22.425Z,28.25
2022-08-04T10:03:54.322Z,28.20
2022-08-04T10:06:35.315Z,27.65
2022-08-04T10:09:10.413Z,27.82
2022-08-04T10:11:55.519Z,28.07
2022-08-04T10:14:40.159Z,27.63
2022-08-04T10:17:17.129Z,27.34
2022-08-04T10:19:47.416Z,26.33
2022-08-04T10:22:29.335Z,26.62
2022-08-04T10:25:05.042Z,27.34
2022-08-04T10:27:55.790Z,27.11
2022-08-04T10:30:25.015Z,26.53
2022-08-04T10:32:57.022Z,25.88
2022-08-04T10:35:28.199Z,25.63
2022-08-04T10:38:02.473Z,26.12
2022-08-04T10:40:40.914Z,26.93
2022-08-04T10:43:22.581Z,26.99
2022-08-04T10:45:58.260Z,27.07
2022-08-04T10:48:34.757Z,27.08
2022-08-04T10:51:07.456Z,25.78
2022-08-04T10:53:39.405Z,25.25
2022-08-04T10:56:12.343Z,24.42
2022-08-04T10:58:48.149Z,24.15
2022-08-04T11:01:50.696Z,24.17
2022-08-04T11:04:13.797Z,24.47
2022-08-04T11:06:45.312Z,24.88
2022-08-04T11:09:15.168Z,25.69
2022-08-04T11:12:00.566Z,26.25
2022-08-04T11:14:34.714Z,26.88
2022-08-04T11:17:06.802Z,27.02
2022-08-04T11:19:45.247Z,27.70
2022-08-04T11:22:25.032Z,28.40
2022-08-04T11:24:55.288Z,28.22
2022-08-04T11:27:27.229Z,27.99
2022-08-04T11:30:02.677Z,28.73
2022-08-04T11:32:36.069Z,28.65
2022-08-04T11:35:04.774Z,27.97
2022-08-04T11:37:42.838Z,27.44
2022-08-04T11:40:12.850Z,26.94
2022-08-04T11:42:43.223Z,27.19
2022-08-04T11:45:15.004Z,27.36
2022-08-04T11:47:52.553Z,27.96
2022-08-04T11:50:23.306Z,28.35
2022-08-04T11:52:55.017Z,29.00
2022-08-04T11:55:24.735Z,29.03
2022-08-04T11:57:54.391Z,29.20
2022-08-04T12:00:23.689Z,29.51
2022-08-04T12:03:00.112Z,29.02
2022-08-04T12:05:35.777Z,27.94
2022-08-04T12:08:19.619Z,27.25
2022-08-04T12:10:52.839Z,25.95
2022-08-04T12:13:30.083Z,25.45
2022-08-04T12:16:02.963Z,25.38
2022-08-04T12:18:34.700Z,25.30
2022-08-04T12:21:07.203Z,25.41
2022-08-04T12:23:40.562Z,25.95
2022-08-04T12:26:12.151Z,26.34
2022-08-04T12:29:08.450Z,26.60
2022-08-04T12:31:36.869Z,26.41
2022-08-04T12:34:08.536Z,26.07
2022-08-04T12:36:39.274Z,25.64
2022-08-04T12:39:11.810Z,25.11
2022-08-04T12:41:41.838Z,24.12
2022-08-04T12:44:36.463Z,24.24
2022-08-04T12:47:26.227Z,24.12
2022-08-04T12:49:56.202Z,23.85
2022-08-04T12:52:59.113Z,23.42
2022-08-04T12:55:24.006Z,23.78
2022-08-04T12:57:53.103Z,23.97
2022-08-04T13:00:29.535Z,24.41
2022-08-04T13:03:09.844Z,24.74
2022-08-04T13:05:40.354Z,25.06
2022-08-04T13:08:09.386Z,25.09
2022-08-04T13:10:41.434Z,25.05
2022-08-04T13:13:14.159Z,24.82
2022-08-04T13:15:47.185Z,24.90
2022-08-04T13:18:29.567Z,24.92
2022-08-04T13:21:21.242Z,24.86
2022-08-04T13:24:09.892Z,24.22
2022-08-04T13:26:55.501Z,23.62
2022-08-04T13:29:59.371Z,23.17
2022-08-04T13:32:17.374Z,22.79
2022-08-04T13:34:49.623Z,22.98
2022-08-04T13:37:26.778Z,22.75
2022-08-04T13:39:56.575Z,22.75
2022-08-04T13:42:28.140Z,23.20
2022-08-04T13:44:58.103Z,23.40
2022-08-04T13:47:28.806Z,23.93
2022-08-04T13:50:14.905Z,23.90
2022-08-04T13:52:43.755Z,24.08
2022-08-04T13:55:20.231Z,23.96
2022-08-04T13:57:51.806Z,23.42
2022-08-04T14:00:29.425Z,22.95
2022-08-04T14:03:02.683Z,22.45
2022-08-04T14:05:36.939Z,22.33
2022-08-04T14:08:25.182Z,22.17
2022-08-04T14:10:56.969Z,21.95
2022-08-04T14:13:40.941Z,21.84
2022-08-04T14:16:17.785Z,22.05
2022-08-04T14:18:46.211Z,22.13
2022-08-04T14:21:15.033Z,22.04
2022-08-04T14:23:48.152Z,21.95
2022-08-04T14:26:32.501Z,22.15
2022-08-04T14:29:27.533Z,22.21
2022-08-04T14:32:05.550Z,22.21
2022-08-04T14:34:41.554Z,22.11
2022-08-04T14:37:17.570Z,21.82
2022-08-04T14:40:17.437Z,21.85
2022-08-04T14:42:44.118Z,21.45
2022-08-04T14:45:14.135Z,21.31
2022-08-04T14:47:52.026Z,21.13
2022-08-04T14:50:21.838Z,20.95
2022-08-04T14:52:50.122Z,20.67
2022-08-04T14:55:19.592Z,20.86
2022-08-04T14:58:36.459Z,21.00
2022-08-04T15:00:38.445Z,21.11
2022-08-04T15:03:08.793Z,21.03
2022-08-04T15:05:55.021Z,21.27
2022-08-04T15:08:29.044Z,21.09
2022-08-04T15:10:59.984Z,21.11
2022-08-04T15:13:28.618Z,21.24
2022-08-04T15:16:06.953Z,21.31
2022-08-04T15:18:37.357Z,21.10
2022-08-04T15:21:05.963Z,21.24
2022-08-04T15:23:39.354Z,21.04
2022-08-04T15:26:13.693Z,21.16
2022-08-04T15:28:44.028Z,21.07
2022-08-04T15:32:06.266Z,21.18
2022-08-04T15:34:02.594Z,21.19
2022-08-04T15:36:38.037Z,21.14
2022-08-04T15:39:12.032Z,21.17
2022-08-04T15:41:55.043Z,21.12
2022-08-04T15:44:41.722Z,21.04
2022-08-04T15:47:16.084Z,21.12
2022-08-04T15:49:44.706Z,21.38
2022-08-04T15:52:15.983Z,21.21
2022-08-04T15:54:52.051Z,21.18
2022-08-04T15:57:38.415Z,21.03
2022-08-04T16:00:12.808Z,20.96
2022-08-04T16:02:45.043Z,20.80
2022-08-04T16:05:35.800Z,20.78
2022-08-04T16:08:14.177Z,20.77
2022-08-04T16:10:43.323Z,20.82
2022-08-04T16:13:14.147Z,20.80
2022-08-04T16:15:43.567Z,20.83
2022-08-04T16:18:26.736Z,20.71
2022-08-04T16:20:59.043Z,20.66
2022-08-04T16:24:00.623Z,20.63
2022-08-04T16:26:54.821Z,20.58
2022-08-04T16:29:46.976Z,20.44
2022-08-04T16:32:22.996Z,20.55
2022-08-04T16:34:58.963Z,20.46
2022-08-04T16:37:31.555Z,20.60
2022-08-04T16:40:18.647Z,20.35
2022-08-04T16:42:46.813Z,20.31
2022-08-04T16:45:15.803Z,20.45
2022-08-04T16:48:04.310Z,20.38
2022-08-04T16:50:34.313Z,20.29
2022-08-04T16:53:14.530Z,20.19
2022-08-04T16:55:59.322Z,20.26
2022-08-04T16:58:29.862Z,20.19
2022-08-04T17:01:08.475Z,20.13
2022-08-04T17:03:38.751Z,20.14
2022-08-04T17:06:09.575Z,20.16
2022-08-04T17:08:38.357Z,20.19
2022-08-04T17:11:06.940Z,19.82
2022-08-04T17:14:03.882Z,19.70
2022-08-04T17:16:25.571Z,19.73
2022-08-04T17:18:54.706Z,19.63
2022-08-04T17:21:25.899Z,19.61
2022-08-04T17:24:12.948Z,19.71
2022-08-04T17:29:43.286Z,19.82
2022-08-04T17:32:18.798Z,19.78
2022-08-04T17:34:50.524Z,19.69
2022-08-04T17:37:38.979Z,19.76
2022-08-04T17:40:10.805Z,19.61
2022-08-04T17:42:41.934Z,19.60
2022-08-04T17:45:50.295Z,19.45
2022-08-04T17:48:00.611Z,19.29
2022-08-04T17:50:35.132Z,19.21
2022-08-04T17:53:11.267Z,19.04
2022-08-04T17:55:42.476Z,19.10
2022-08-04T17:58:21.165Z,19.09
2022-08-04T18:00:57.628Z,19.14
2022-08-04T18:03:39.040Z,19.17
2022-08-04T18:06:12.530Z,19.13
2022-08-04T18:08:45.960Z,19.21
2022-08-04T18:11:22.231Z,19.23
2022-08-04T18:13:56.930Z,19.18
2022-08-04T18:16:27.357Z,19.08
2022-08-04T18:19:11.691Z,18.99
2022-08-04T18:24:35.544Z,18.71
2022-08-04T18:27:18.683Z,18.54
2022-08-04T18:30:15.128Z,18.39
2022-08-04T18:32:35.842Z,18.27
2022-08-04T18:35:05.596Z,18.01
2022-08-04T18:38:06.679Z,17.99
2022-08-04T18:40:33.227Z,17.84
2022-08-04T18:43:14.365Z,17.80
2022-08-04T18:45:51.332Z,17.75
2022-08-04T18:48:19.954Z,17.68
2022-08-04T18:51:10.059Z,17.63
2022-08-04T18:53:36.310Z,17.60
2022-08-04T18:56:19.844Z,17.54
2022-08-04T18:58:54.946Z,17.49
2022-08-04T19:01:29.584Z,17.52
2022-08-04T19:03:58.721Z,17.51
2022-08-04T19:06:27.605Z,17.48
2022-08-04T19:08:55.771Z,17.48
2022-08-04T19:11:54.255Z,17.23
2022-08-04T19:14:14.190Z,17.23
2022-08-04T19:16:45.866Z,17.03
2022-08-04T19:19:15.371Z,16.90
2022-08-04T19:22:00.683Z,16.85
2022-08-04T19:24:34.181Z,16.72
2022-08-04T19:27:09.145Z,16.66
2022-08-04T19:29:40.632Z,16.63
2022-08-04T19:32:14.712Z,16.50
2022-08-04T19:34:46.372Z,16.38
2022-08-04T19:37:56.173Z,16.32
2022-08-04T19:40:06.633Z,16.29
2022-08-04T19:42:42.134Z,16.30
2022-08-04T19:45:15.693Z,16.23
2022-08-04T19:48:12.093Z,16.15
2022-08-04T19:50:38.166Z,16.09
2022-08-04T19:53:18.804Z,16.00
2022-08-04T19:55:54.332Z,15.83
2022-08-04T19:58:28.087Z,15.79
2022-08-04T20:00:58.523Z,15.63
2022-08-04T20:04:09.673Z,15.50
2022-08-04T20:06:24.571Z,15.45
2022-08-04T20:08:58.981Z,15.43
2022-08-04T20:11:33.633Z,15.36
2022-08-04T20:14:09.609Z,15.23
2022-08-04T20:16:43.549Z,15.21
2022-08-04T20:19:14.976Z,15.06
2022-08-04T20:21:55.414Z,15.04
2022-08-04T20:24:36.542Z,14.97
2022-08-04T20:27:16.095Z,14.77
2022-08-04T20:29:51.911Z,14.77
2022-08-04T20:32:28.885Z,14.74
2022-08-04T20:34:59.416Z,14.59
2022-08-04T20:37:56.886Z,14.52
2022-08-04T20:40:23.756Z,14.40
2022-08-04T20:42:57.617Z,14.31
2022-08-04T20:45:56.823Z,14.26
2022-08-04T20:48:25.678Z,14.23
2022-08-04T20:50:59.542Z,14.12
2022-08-04T20:53:46.645Z,13.99
2022-08-04T20:56:30.212Z,13.94
2022-08-04T20:59:07.886Z,13.88
2022-08-04T21:01:39.766Z,13.86
2022-08-04T21:04:32.684Z,13.82
2022-08-04T21:07:03.703Z,13.71
2022-08-04T21:09:38.241Z,13.68
2022-08-04T21:12:27.482Z,13.62
2022-08-04T21:15:13.736Z,13.58
2022-08-04T21:17:57.012Z,13.54
2022-08-04T21:20:29.910Z,13.47
2022-08-04T21:23:01.963Z,13.44
2022-08-04T21:25:33.045Z,13.39
2022-08-04T21:28:12.248Z,13.32
2022-08-04T21:30:52.899Z,13.27
2022-08-04T21:33:49.667Z,13.19
2022-08-04T21:36:19.956Z,13.13
2022-08-04T21:38:51.500Z,13.05
2022-08-04T21:41:24.622Z,12.99
2022-08-04T21:43:58.941Z,12.91
2022-08-04T21:46:30.002Z,12.83
2022-08-04T21:48:59.983Z,12.76
2022-08-04T21:51:57.774Z,12.66
2022-08-04T21:54:20.294Z,12.57
2022-08-04T21:56:51.004Z,12.49
2022-08-04T21:59:23.254Z,12.39
2022-08-04T22:01:56.651Z,12.32
2022-08-04T22:04:27.717Z,12.24
2022-08-04T22:07:02.886Z,12.14
2022-08-04T22:09:41.064Z,12.03
2022-08-04T22:12:12.447Z,11.89
2022-08-04T22:14:50.245Z,11.72
2022-08-04T22:17:20.342Z,11.57
2022-08-04T22:19:56.639Z,11.40
2022-08-04T22:22:31.389Z,11.18
2022-08-04T22:28:02.740Z,10.88
2022-08-04T22:30:36.973Z,10.73
2022-08-04T22:33:08.402Z,10.63
2022-08-04T22:35:44.087Z,10.52
2022-08-04T22:38:34.856Z,10.36
2022-08-04T22:41:14.459Z,10.28
2022-08-04T22:43:54.915Z,10.23
2022-08-04T22:46:29.811Z,10.17
2022-08-04T22:49:03.938Z,10.13
2022-08-04T22:51:50.688Z,10.07
2022-08-04T22:54:23.612Z,10.06
2022-08-04T22:57:01.754Z,10.02
2022-08-04T22:59:36.323Z,9.97
2022-08-04T23:02:09.398Z,9.94
2022-08-04T23:04:37.679Z,9.92
2022-08-04T23:07:15.287Z,9.87
2022-08-04T23:09:51.105Z,9.82
2022-08-04T23:12:25.980Z,9.77
2022-08-04T23:15:04.397Z,9.73
2022-08-04T23:17:43.803Z,9.66
2022-08-04T23:20:23.691Z,9.57
2022-08-04T23:23:12.357Z,9.45
2022-08-04T23:26:08.196Z,9.40
2022-08-04T23:28:43.338Z,9.35
2022-08-04T23:31:19.749Z,9.32
2022-08-04T23:33:54.555Z,9.27
2022-08-04T23:36:30.858Z,9.25
2022-08-04T23:39:12.106Z,9.24
2022-08-04T23:41:53.790Z,9.19
2022-08-04T23:44:32.286Z,9.12
2022-08-04T23:47:03.293Z,9.10
2022-08-04T23:49:44.017Z,9.04
2022-08-04T23:52:15.762Z,9.01
2022-08-04T23:54:58.339Z,9.00
2022-08-04T23:58:02.250Z,8.99
